FW8942 Weather Reports


Display with metric or nautical units.
time (UTC)temp
F
wind
direction
speed
MPH
gust
MPH
rain 1hr
in
rain 24hr
in
rain mn
in
humidity
%
barometer
mb
20260507193042 72 239 2.0 9.0 0.00 0.00 0.00 70 1014.6
20260507191537 71 188 2.0 7.0 0.00 0.00 0.00 71 1014.9
20260507190038 71 284 2.0 9.0 0.00 0.00 0.00 70 1015.0
20260507184535 72 273 1.0 6.0 0.00 0.00 0.00 69 1015.2
20260507183035 72 203 1.0 5.0 0.00 0.00 0.00 69 1015.2
20260507181533 72 176 1.0 5.0 0.00 0.00 0.00 69 1015.2
20260507180033 72 203 0.0 5.0 0.00 0.00 0.00 69 1015.3
20260507174544 71 232 1.0 6.0 0.00 0.00 0.00 71 1015.4
20260507173028 70 177 0.0 6.0 0.00 0.00 0.00 72 1015.5
20260507171530 70 274 0.0 6.0 0.00 0.00 0.00 72 1015.6
20260507170024 69 257 0.0 4.0 0.00 0.00 0.00 74 1015.6
20260507164519 68 273 0.0 4.0 0.00 0.00 0.00 76 1015.7
20260507163021 68 282 0.0 3.0 0.00 0.00 0.00 76 1015.8
20260507161519 67 274 0.0 4.0 0.00 0.00 0.00 77 1015.8
20260507160015 66 198 0.0 0.0 0.00 0.00 0.00 79 1016.0
20260507154517 65 176 0.0 4.0 0.00 0.00 0.00 80 1016.1
20260507153007 65 37 0.0 1.0 0.00 0.00 0.00 83 1016.1
20260507151508 64 338 0.0 0.0 0.00 0.00 0.00 82 1016.2
20260507150002 62 30 0.0 0.0 0.00 0.00 0.00 88 1016.1
20260507144558 59 25 0.0 0.0 0.00 0.00 0.00 90 1016.1
20260507143103 58 29 0.0 0.0 0.00 0.00 0.00 92 1016.0
20260507141557 56 32 0.0 0.0 0.00 0.00 0.00 94 1015.7
20260507140109 54 30 0.0 0.0 0.00 0.00 0.00 95 1015.8
20260507134550 52 342 0.0 0.0 0.00 0.00 0.00 95 1015.7
20260507133053 51 22 0.0 0.0 0.00 0.00 0.00 94 1015.5
20260507131613 51 32 0.0 0.0 0.00 0.00 0.00 95 1015.4
20260507130046 51 33 0.0 0.0 0.00 0.00 0.00 95 1015.5
20260507124552 51 33 0.0 0.0 0.00 0.00 0.00 94 1015.2
20260507123046 51 32 0.0 0.0 0.00 0.00 0.00 95 1015.2
20260507121545 51 33 0.0 0.0 0.00 0.00 0.00 94 1015.2
20260507120043 51 32 0.0 0.0 0.00 0.00 0.00 94 1015.1
20260507114540 52 33 0.0 0.0 0.00 0.00 0.00 94 1015.1
20260507113102 52 33 0.0 0.0 0.00 0.00 0.00 94 1015.1
20260507111537 52 34 0.0 0.0 0.00 0.00 0.00 94 1015.2
20260507110038 53 34 0.0 0.0 0.00 0.00 0.00 94 1015.3
20260507104533 53 34 0.0 0.0 0.00 0.00 0.00 94 1015.4
20260507103032 53 37 0.0 0.0 0.00 0.00 0.00 94 1015.4
20260507101530 53 34 0.0 0.0 0.00 0.00 0.00 93 1015.5
20260507100041 53 32 0.0 0.0 0.00 0.00 0.00 94 1015.5
20260507094524 54 33 0.0 0.0 0.00 0.00 0.00 93 1015.7
20260507093027 54 34 0.0 0.0 0.00 0.00 0.00 93 1015.8
20260507091522 54 30 0.0 3.0 0.00 0.00 0.00 93 1015.8
20260507090019 55 32 0.0 1.0 0.00 0.00 0.00 93 1015.9
20260507084538 55 34 0.0 1.0 0.00 0.00 0.00 93 1016.1
20260507083022 55 37 0.0 2.0 0.00 0.00 0.00 93 1016.2
20260507081514 55 340 0.0 3.0 0.00 0.00 0.00 93 1016.3
20260507080015 56 33 0.0 0.0 0.00 0.00 0.00 93 1016.4
20260507074513 55 20 0.0 1.0 0.00 0.00 0.00 93 1016.3
20260507073009 56 4 0.0 2.0 0.00 0.00 0.00 92 1016.5
20260507071515 56 30 0.0 2.0 0.00 0.00 0.00 92 1016.4
20260507070015 56 344 0.0 2.0 0.00 0.00 0.00 92 1016.6
20260507064507 56 29 0.0 0.0 0.00 0.00 0.00 92 1016.6
20260507063004 56 16 0.0 0.0 0.00 0.00 0.00 92 1016.3
20260507061504 57 337 0.0 1.0 0.00 0.00 0.00 91 1016.5
20260507060003 57 49 0.0 1.0 0.00 0.00 0.00 91 1016.6
20260507054503 57 323 0.0 1.0 0.00 0.00 0.00 90 1016.6
20260507053003 57 344 0.0 1.0 0.00 0.00 0.00 90 1016.6
20260507051502 58 44 0.0 1.0 0.00 0.00 0.00 89 1016.6
20260507050006 58 253 0.0 0.0 0.00 0.00 0.00 88 1016.4
20260507044501 59 253 0.0 0.0 0.00 0.00 0.00 88 1016.4
20260507043100 60 253 0.0 0.0 0.00 0.00 0.00 87 1016.3
20260507041601 60 253 0.0 1.0 0.00 0.00 0.00 87 1016.4
20260507040109 61 253 0.0 1.0 0.00 0.00 0.00 86 1016.2
20260507034605 61 253 0.0 1.0 0.00 0.00 0.00 85 1016.1
20260507033103 62 246 0.0 1.0 0.00 0.00 0.00 84 1015.9
20260507031558 62 269 0.0 1.0 0.00 0.00 0.00 83 1015.9
20260507030058 63 256 0.0 0.0 0.00 0.00 0.00 82 1015.7
20260507024557 63 256 0.0 2.0 0.00 0.00 0.00 82 1015.5
20260507023056 64 253 0.0 2.0 0.00 0.00 0.00 80 1015.4
20260507021605 65 253 1.0 5.0 0.00 0.00 0.00 77 1015.3
20260507020057 67 267 1.0 3.0 0.00 0.00 0.00 77 1015.3
20260507014558 67 267 0.0 3.0 0.00 0.00 0.00 75 1015.1
20260507013054 68 281 1.0 7.0 0.00 0.00 0.00 72 1015.0
20260507011558 68 270 2.0 7.0 0.00 0.00 0.00 68 1015.0
20260507010055 69 255 3.0 6.0 0.00 0.00 0.00 63 1014.8
20260507004553 69 277 4.0 11.0 0.00 0.00 0.00 61 1014.9
20260507003050 70 277 3.0 10.0 0.00 0.00 0.00 61 1014.8
20260507001549 70 277 4.0 8.0 0.00 0.00 0.00 61 1014.7
20260507000049 72 269 3.0 7.0 0.00 0.00 0.00 61 1014.6
20260506234604 71 283 2.0 6.0 0.00 0.00 0.00 64 1014.5
20260506233047 71 278 6.0 10.0 0.00 0.00 0.00 63 1014.5
20260506231546 70 236 4.0 9.0 0.00 0.00 0.00 67 1014.6
20260506230043 70 264 4.0 12.0 0.00 0.00 0.00 68 1014.7
20260506224546 70 285 5.0 13.0 0.00 0.00 0.00 67 1014.8
20260506223047 70 309 5.0 12.0 0.00 0.00 0.00 66 1014.9
20260506221539 69 271 4.0 11.0 0.00 0.00 0.00 67 1015.0
20260506220038 69 263 5.0 11.0 0.00 0.00 0.00 68 1015.2
20260506214539 70 269 8.0 13.0 0.00 0.00 0.00 66 1015.3
20260506213034 69 271 7.0 13.0 0.00 0.00 0.00 67 1015.6
20260506211535 70 284 7.0 12.0 0.00 0.00 0.00 67 1015.7
20260506210036 71 302 2.0 8.0 0.00 0.00 0.00 65 1015.8
20260506204546 72 278 2.0 6.0 0.00 0.00 0.00 65 1015.8
20260506203031 71 233 4.0 9.0 0.00 0.00 0.00 64 1016.0
20260506201533 69 277 4.0 11.0 0.00 0.00 0.00 68 1016.2
20260506200026 70 233 3.0 9.0 0.00 0.00 0.00 67 1016.3
20260506194525 70 295 4.0 9.0 0.00 0.00 0.00 66 1016.4